createdAt,value
2022-10-29T00:04:57.855Z,69.31
2022-10-29T00:11:59.439Z,69.47
2022-10-29T00:19:01.013Z,69.50
2022-10-29T00:26:02.748Z,69.89
2022-10-29T00:33:04.303Z,69.71
2022-10-29T00:40:06.351Z,69.70
2022-10-29T00:47:17.337Z,69.93
2022-10-29T00:54:18.947Z,70.39
2022-10-29T01:01:20.683Z,71.07
2022-10-29T01:08:22.322Z,71.70
2022-10-29T01:15:33.794Z,72.12
2022-10-29T01:22:40.006Z,72.64
2022-10-29T01:29:54.242Z,72.94
2022-10-29T01:37:02.052Z,72.81
2022-10-29T01:44:13.854Z,73.15
2022-10-29T01:51:19.205Z,73.04
2022-10-29T01:58:20.772Z,73.72
2022-10-29T02:05:25.287Z,74.74
2022-10-29T02:12:31.021Z,74.92
2022-10-29T02:19:33.550Z,75.02
2022-10-29T02:26:35.113Z,76.22
2022-10-29T02:33:36.656Z,75.71
2022-10-29T02:40:38.216Z,76.56
2022-10-29T02:47:39.799Z,77.75
2022-10-29T02:54:41.430Z,78.18
2022-10-29T03:01:43.170Z,78.41
2022-10-29T03:08:45.189Z,78.69
2022-10-29T03:15:46.755Z,78.43
2022-10-29T03:22:48.378Z,78.37
2022-10-29T03:29:50.017Z,78.64
2022-10-29T03:36:51.600Z,79.72
2022-10-29T03:43:53.253Z,78.95
2022-10-29T03:51:01.864Z,79.38
2022-10-29T03:58:03.437Z,81.04
2022-10-29T04:05:05.327Z,82.01
2022-10-29T04:12:07.461Z,82.51
2022-10-29T04:19:09.024Z,83.29
2022-10-29T04:33:32.277Z,83.75
2022-10-29T04:40:33.846Z,83.60
2022-10-29T04:47:35.415Z,84.80
2022-10-29T04:54:37.013Z,85.07
2022-10-29T05:01:38.620Z,85.75
2022-10-29T05:08:40.184Z,85.61
2022-10-29T05:15:41.800Z,84.93
2022-10-29T05:22:43.374Z,85.14
2022-10-29T05:29:44.944Z,85.87
2022-10-29T05:36:47.025Z,86.20
2022-10-29T05:43:49.722Z,86.39
2022-10-29T05:50:51.410Z,86.66
2022-10-29T05:57:59.428Z,86.84
2022-10-29T06:05:01.001Z,87.06
2022-10-29T06:12:02.582Z,88.15
2022-10-29T06:19:04.259Z,88.28
2022-10-29T06:26:05.813Z,89.19
2022-10-29T06:33:07.482Z,88.84
2022-10-29T06:40:09.531Z,89.06
2022-10-29T06:47:11.074Z,89.25
2022-10-29T06:54:12.664Z,89.85
2022-10-29T07:01:14.256Z,89.38
2022-10-29T07:08:15.848Z,89.39
2022-10-29T07:15:17.691Z,88.60
2022-10-29T07:22:19.222Z,88.15
2022-10-29T07:29:20.783Z,87.32
2022-10-29T07:36:22.410Z,87.33
2022-10-29T07:43:24.004Z,87.59
2022-10-29T07:50:25.903Z,86.94
2022-10-29T07:57:27.470Z,85.80
2022-10-29T08:04:29.077Z,84.08
2022-10-29T08:11:33.778Z,83.11
2022-10-29T08:18:35.338Z,82.82
2022-10-29T08:25:43.047Z,81.15
2022-10-29T08:32:46.545Z,80.59
2022-10-29T08:39:48.097Z,79.79
2022-10-29T08:47:09.612Z,78.38
2022-10-29T08:54:30.433Z,77.45
2022-10-29T09:01:32.539Z,76.37
2022-10-29T09:08:59.244Z,74.75
2022-10-29T09:16:01.921Z,73.16
2022-10-29T09:23:24.940Z,71.89
2022-10-29T09:30:29.391Z,70.48
2022-10-29T09:38:05.245Z,69.68
2022-10-29T09:45:10.696Z,68.72
2022-10-29T09:52:32.506Z,67.02
2022-10-29T09:59:37.106Z,66.79
2022-10-29T10:07:05.252Z,67.04
2022-10-29T10:14:16.596Z,66.17
2022-10-29T10:21:31.578Z,68.23
2022-10-29T10:28:36.270Z,68.45
2022-10-29T10:35:37.837Z,65.96
2022-10-29T10:42:42.748Z,63.55
2022-10-29T10:49:44.308Z,64.37
2022-10-29T10:57:02.489Z,64.33
2022-10-29T11:04:27.990Z,64.01
2022-10-29T11:11:35.896Z,63.06
2022-10-29T11:18:56.195Z,63.13
2022-10-29T11:26:07.887Z,62.79
2022-10-29T11:33:37.363Z,61.70
2022-10-29T11:40:50.093Z,61.78
2022-10-29T11:48:04.866Z,62.20
2022-10-29T11:55:21.766Z,61.70
2022-10-29T12:02:40.011Z,61.01
2022-10-29T12:09:57.473Z,60.07
2022-10-29T12:17:27.438Z,59.64
2022-10-29T12:24:50.452Z,59.61
2022-10-29T12:32:03.076Z,59.19
2022-10-29T12:39:05.518Z,59.33
2022-10-29T12:46:29.196Z,59.27
2022-10-29T12:53:52.423Z,59.84
2022-10-29T13:00:54.075Z,60.32
2022-10-29T13:07:59.297Z,60.68
2022-10-29T13:15:03.795Z,61.34
2022-10-29T13:22:14.341Z,62.01
2022-10-29T13:29:42.205Z,61.74
2022-10-29T13:36:43.789Z,62.01
2022-10-29T13:44:04.916Z,62.06
2022-10-29T13:51:08.090Z,62.46
2022-10-29T13:58:24.768Z,61.83
2022-10-29T14:05:47.381Z,62.58
2022-10-29T14:12:49.211Z,61.99
2022-10-29T14:19:51.475Z,61.69
2022-10-29T14:26:53.681Z,61.98
2022-10-29T14:33:59.082Z,62.76
2022-10-29T14:41:00.677Z,63.21
2022-10-29T14:48:03.331Z,63.81
2022-10-29T14:55:13.402Z,64.33
2022-10-29T15:02:36.881Z,65.15
2022-10-29T15:09:36.562Z,64.96
2022-10-29T15:16:41.458Z,65.43
2022-10-29T15:23:44.103Z,66.09
2022-10-29T15:30:46.917Z,66.58
2022-10-29T15:37:48.564Z,67.24
2022-10-29T15:45:08.089Z,67.49
2022-10-29T15:52:09.754Z,68.25
2022-10-29T15:59:14.663Z,68.57
2022-10-29T16:06:16.366Z,68.97
2022-10-29T16:13:18.266Z,69.22
2022-10-29T16:20:19.949Z,70.49
2022-10-29T16:27:21.537Z,71.33
2022-10-29T16:34:24.717Z,70.69
2022-10-29T16:41:26.611Z,71.47
2022-10-29T16:48:28.188Z,71.53
2022-10-29T16:55:29.808Z,72.04
2022-10-29T17:02:31.374Z,72.39
2022-10-29T17:09:35.334Z,72.13
2022-10-29T17:16:36.944Z,72.87
2022-10-29T17:23:38.601Z,73.49
2022-10-29T17:30:40.349Z,73.61
2022-10-29T17:37:41.948Z,74.67
2022-10-29T17:44:43.542Z,75.05
2022-10-29T17:51:45.164Z,75.57
2022-10-29T17:58:46.753Z,75.38
2022-10-29T18:05:48.398Z,75.56
2022-10-29T18:12:49.944Z,75.63
2022-10-29T18:19:51.894Z,76.02
2022-10-29T18:26:53.556Z,76.34
2022-10-29T18:33:55.426Z,76.65
2022-10-29T18:40:57.975Z,77.38
2022-10-29T18:48:00.152Z,77.56
2022-10-29T18:55:02.202Z,78.10
2022-10-29T19:02:04.038Z,78.89
2022-10-29T19:09:06.829Z,79.60
2022-10-29T19:16:12.132Z,80.01
2022-10-29T19:23:13.719Z,80.50
2022-10-29T19:30:15.880Z,80.89
2022-10-29T19:37:17.473Z,81.06
2022-10-29T19:44:19.100Z,80.95
2022-10-29T19:51:21.216Z,81.03
2022-10-29T19:58:24.238Z,81.67
2022-10-29T20:05:25.850Z,81.40
2022-10-29T20:12:27.556Z,81.71
2022-10-29T20:19:29.355Z,81.51
2022-10-29T20:26:31.177Z,82.15
2022-10-29T20:33:32.751Z,82.76
2022-10-29T20:40:34.304Z,83.53
2022-10-29T20:47:35.904Z,83.98
2022-10-29T20:54:37.477Z,83.17
2022-10-29T21:01:39.183Z,83.60
2022-10-29T21:08:40.906Z,83.89
2022-10-29T21:15:42.468Z,85.38
2022-10-29T21:22:44.052Z,85.88
2022-10-29T21:29:45.727Z,85.72
2022-10-29T21:36:47.321Z,86.12
2022-10-29T21:43:48.888Z,85.69
2022-10-29T21:50:50.482Z,85.70
2022-10-29T21:57:52.058Z,85.93
2022-10-29T22:04:53.660Z,86.54
2022-10-29T22:11:55.213Z,86.05
2022-10-29T22:18:56.777Z,85.88
2022-10-29T22:25:58.385Z,85.19
2022-10-29T22:32:59.948Z,85.91
2022-10-29T22:40:01.527Z,85.60
2022-10-29T22:47:03.120Z,85.46
2022-10-29T22:54:04.895Z,85.42
2022-10-29T23:01:08.150Z,85.99
2022-10-29T23:08:09.755Z,85.47
2022-10-29T23:15:11.355Z,85.75
2022-10-29T23:22:12.904Z,85.87
2022-10-29T23:29:14.521Z,85.83
2022-10-29T23:36:16.592Z,86.89
2022-10-29T23:43:18.150Z,86.86
2022-10-29T23:50:19.729Z,89.96
2022-10-29T23:57:21.324Z,87.86
